sensor_id;sensor_type;location;lat;lon;timestamp;P1;durP1;ratioP1;P2;durP2;ratioP2
5684;SDS011;2865;53.114;9.130;2022-12-18T00:00:41;26.10;;;16.43;;
5684;SDS011;2865;53.114;9.130;2022-12-18T00:03:06;21.70;;;16.33;;
5684;SDS011;2865;53.114;9.130;2022-12-18T00:05:31;20.90;;;16.40;;
5684;SDS011;2865;53.114;9.130;2022-12-18T00:07:57;23.97;;;15.00;;
5684;SDS011;2865;53.114;9.130;2022-12-18T00:10:23;25.17;;;17.47;;
5684;SDS011;2865;53.114;9.130;2022-12-18T00:12:49;34.57;;;16.30;;
5684;SDS011;2865;53.114;9.130;2022-12-18T00:15:14;21.10;;;15.73;;
5684;SDS011;2865;53.114;9.130;2022-12-18T00:17:39;26.00;;;15.47;;
5684;SDS011;2865;53.114;9.130;2022-12-18T00:20:05;23.03;;;16.33;;
5684;SDS011;2865;53.114;9.130;2022-12-18T00:22:32;22.58;;;16.52;;
5684;SDS011;2865;53.114;9.130;2022-12-18T00:24:58;19.75;;;15.93;;
5684;SDS011;2865;53.114;9.130;2022-12-18T00:27:23;18.07;;;16.13;;
5684;SDS011;2865;53.114;9.130;2022-12-18T00:29:49;23.73;;;16.17;;
5684;SDS011;2865;53.114;9.130;2022-12-18T00:32:14;17.73;;;14.40;;
5684;SDS011;2865;53.114;9.130;2022-12-18T00:34:39;24.33;;;16.30;;
5684;SDS011;2865;53.114;9.130;2022-12-18T00:37:05;20.90;;;14.30;;
5684;SDS011;2865;53.114;9.130;2022-12-18T00:39:31;19.17;;;14.87;;
5684;SDS011;2865;53.114;9.130;2022-12-18T00:41:57;26.53;;;15.53;;
5684;SDS011;2865;53.114;9.130;2022-12-18T00:44:28;30.40;;;17.02;;
5684;SDS011;2865;53.114;9.130;2022-12-18T00:46:54;26.93;;;16.20;;
5684;SDS011;2865;53.114;9.130;2022-12-18T00:49:19;24.57;;;16.37;;
5684;SDS011;2865;53.114;9.130;2022-12-18T00:51:45;23.87;;;15.73;;
5684;SDS011;2865;53.114;9.130;2022-12-18T00:54:10;24.60;;;15.60;;
5684;SDS011;2865;53.114;9.130;2022-12-18T00:56:37;26.10;;;15.43;;
5684;SDS011;2865;53.114;9.130;2022-12-18T00:59:02;20.07;;;16.77;;
5684;SDS011;2865;53.114;9.130;2022-12-18T01:01:27;22.80;;;16.70;;
5684;SDS011;2865;53.114;9.130;2022-12-18T01:03:53;24.30;;;16.37;;
5684;SDS011;2865;53.114;9.130;2022-12-18T01:06:18;23.17;;;16.50;;
5684;SDS011;2865;53.114;9.130;2022-12-18T01:08:43;18.03;;;14.87;;
5684;SDS011;2865;53.114;9.130;2022-12-18T01:11:12;16.87;;;14.40;;
5684;SDS011;2865;53.114;9.130;2022-12-18T01:13:36;22.90;;;14.65;;
5684;SDS011;2865;53.114;9.130;2022-12-18T01:16:02;23.10;;;15.33;;
5684;SDS011;2865;53.114;9.130;2022-12-18T01:18:27;22.83;;;14.77;;
5684;SDS011;2865;53.114;9.130;2022-12-18T01:20:53;23.03;;;14.70;;
5684;SDS011;2865;53.114;9.130;2022-12-18T01:23:18;19.87;;;14.53;;
5684;SDS011;2865;53.114;9.130;2022-12-18T01:25:43;20.07;;;15.60;;
5684;SDS011;2865;53.114;9.130;2022-12-18T01:28:09;21.23;;;14.50;;
5684;SDS011;2865;53.114;9.130;2022-12-18T01:30:34;20.07;;;13.70;;
5684;SDS011;2865;53.114;9.130;2022-12-18T01:33:00;21.23;;;14.32;;
5684;SDS011;2865;53.114;9.130;2022-12-18T01:35:26;16.90;;;14.20;;
5684;SDS011;2865;53.114;9.130;2022-12-18T01:37:54;15.20;;;13.60;;
5684;SDS011;2865;53.114;9.130;2022-12-18T01:40:16;21.87;;;14.10;;
5684;SDS011;2865;53.114;9.130;2022-12-18T01:42:42;16.83;;;13.57;;
5684;SDS011;2865;53.114;9.130;2022-12-18T01:45:27;16.43;;;13.17;;
5684;SDS011;2865;53.114;9.130;2022-12-18T01:47:56;17.00;;;13.25;;
5684;SDS011;2865;53.114;9.130;2022-12-18T01:50:22;15.95;;;13.18;;
5684;SDS011;2865;53.114;9.130;2022-12-18T01:53:06;16.10;;;12.88;;
5684;SDS011;2865;53.114;9.130;2022-12-18T01:55:31;18.75;;;15.00;;
5684;SDS011;2865;53.114;9.130;2022-12-18T01:58:05;20.25;;;15.32;;
5684;SDS011;2865;53.114;9.130;2022-12-18T02:00:31;15.90;;;13.27;;
5684;SDS011;2865;53.114;9.130;2022-12-18T02:02:56;19.40;;;14.40;;
5684;SDS011;2865;53.114;9.130;2022-12-18T02:05:24;18.33;;;13.30;;
5684;SDS011;2865;53.114;9.130;2022-12-18T02:07:57;18.12;;;13.50;;
5684;SDS011;2865;53.114;9.130;2022-12-18T02:10:27;15.25;;;12.80;;
5684;SDS011;2865;53.114;9.130;2022-12-18T02:13:01;15.35;;;13.38;;
5684;SDS011;2865;53.114;9.130;2022-12-18T02:15:41;13.60;;;12.20;;
5684;SDS011;2865;53.114;9.130;2022-12-18T02:18:07;19.95;;;13.05;;
5684;SDS011;2865;53.114;9.130;2022-12-18T02:20:33;15.75;;;12.88;;
5684;SDS011;2865;53.114;9.130;2022-12-18T02:28:13;13.75;;;12.37;;
5684;SDS011;2865;53.114;9.130;2022-12-18T02:30:39;18.00;;;13.63;;
5684;SDS011;2865;53.114;9.130;2022-12-18T02:33:04;15.80;;;13.10;;
5684;SDS011;2865;53.114;9.130;2022-12-18T02:35:30;17.00;;;13.93;;
5684;SDS011;2865;53.114;9.130;2022-12-18T02:37:55;19.67;;;13.27;;
5684;SDS011;2865;53.114;9.130;2022-12-18T02:40:22;14.80;;;11.43;;
5684;SDS011;2865;53.114;9.130;2022-12-18T02:42:47;16.27;;;13.10;;
5684;SDS011;2865;53.114;9.130;2022-12-18T02:45:12;16.80;;;13.30;;
5684;SDS011;2865;53.114;9.130;2022-12-18T02:47:39;15.47;;;12.03;;
5684;SDS011;2865;53.114;9.130;2022-12-18T02:50:12;15.70;;;13.77;;
5684;SDS011;2865;53.114;9.130;2022-12-18T02:52:42;24.37;;;13.10;;
5684;SDS011;2865;53.114;9.130;2022-12-18T02:55:13;16.48;;;12.82;;
5684;SDS011;2865;53.114;9.130;2022-12-18T02:57:54;18.27;;;13.38;;
5684;SDS011;2865;53.114;9.130;2022-12-18T03:00:23;18.62;;;14.38;;
5684;SDS011;2865;53.114;9.130;2022-12-18T03:02:50;12.32;;;11.00;;
5684;SDS011;2865;53.114;9.130;2022-12-18T03:05:15;16.60;;;12.25;;
5684;SDS011;2865;53.114;9.130;2022-12-18T03:07:42;15.40;;;12.70;;
5684;SDS011;2865;53.114;9.130;2022-12-18T03:10:08;12.85;;;11.12;;
5684;SDS011;2865;53.114;9.130;2022-12-18T03:12:35;13.47;;;12.00;;
5684;SDS011;2865;53.114;9.130;2022-12-18T03:15:03;18.85;;;13.32;;
5684;SDS011;2865;53.114;9.130;2022-12-18T03:17:27;15.27;;;12.80;;
5684;SDS011;2865;53.114;9.130;2022-12-18T03:19:52;14.10;;;11.70;;
5684;SDS011;2865;53.114;9.130;2022-12-18T03:22:18;17.83;;;11.93;;
5684;SDS011;2865;53.114;9.130;2022-12-18T03:24:44;18.13;;;11.90;;
5684;SDS011;2865;53.114;9.130;2022-12-18T03:27:11;12.80;;;11.50;;
5684;SDS011;2865;53.114;9.130;2022-12-18T03:29:35;21.13;;;13.13;;
5684;SDS011;2865;53.114;9.130;2022-12-18T03:32:05;14.98;;;11.88;;
5684;SDS011;2865;53.114;9.130;2022-12-18T03:34:30;16.85;;;11.93;;
5684;SDS011;2865;53.114;9.130;2022-12-18T03:36:55;15.10;;;11.90;;
5684;SDS011;2865;53.114;9.130;2022-12-18T03:39:20;13.60;;;12.20;;
5684;SDS011;2865;53.114;9.130;2022-12-18T03:41:48;12.93;;;11.57;;
5684;SDS011;2865;53.114;9.130;2022-12-18T03:44:15;15.43;;;12.45;;
5684;SDS011;2865;53.114;9.130;2022-12-18T03:46:43;13.70;;;12.05;;
5684;SDS011;2865;53.114;9.130;2022-12-18T03:49:09;18.12;;;11.30;;
5684;SDS011;2865;53.114;9.130;2022-12-18T03:51:37;16.77;;;12.75;;
5684;SDS011;2865;53.114;9.130;2022-12-18T03:54:01;23.92;;;13.05;;
5684;SDS011;2865;53.114;9.130;2022-12-18T03:56:27;13.47;;;11.17;;
5684;SDS011;2865;53.114;9.130;2022-12-18T03:58:52;17.23;;;11.47;;
5684;SDS011;2865;53.114;9.130;2022-12-18T04:01:17;16.67;;;12.20;;
5684;SDS011;2865;53.114;9.130;2022-12-18T04:03:42;16.33;;;13.37;;
5684;SDS011;2865;53.114;9.130;2022-12-18T04:06:07;10.80;;;9.70;;
5684;SDS011;2865;53.114;9.130;2022-12-18T04:08:33;16.83;;;12.23;;
5684;SDS011;2865;53.114;9.130;2022-12-18T04:10:59;13.40;;;11.20;;
5684;SDS011;2865;53.114;9.130;2022-12-18T04:13:27;13.20;;;10.60;;
5684;SDS011;2865;53.114;9.130;2022-12-18T04:15:50;13.10;;;10.60;;
5684;SDS011;2865;53.114;9.130;2022-12-18T04:18:15;12.13;;;10.90;;
5684;SDS011;2865;53.114;9.130;2022-12-18T04:20:41;12.50;;;11.47;;
5684;SDS011;2865;53.114;9.130;2022-12-18T04:23:06;15.90;;;12.20;;
5684;SDS011;2865;53.114;9.130;2022-12-18T04:25:31;15.17;;;11.20;;
5684;SDS011;2865;53.114;9.130;2022-12-18T04:27:57;13.97;;;11.50;;
5684;SDS011;2865;53.114;9.130;2022-12-18T04:30:22;13.47;;;11.83;;
5684;SDS011;2865;53.114;9.130;2022-12-18T04:32:47;16.27;;;11.00;;
5684;SDS011;2865;53.114;9.130;2022-12-18T04:35:13;13.20;;;11.80;;
5684;SDS011;2865;53.114;9.130;2022-12-18T04:37:39;18.83;;;12.20;;
5684;SDS011;2865;53.114;9.130;2022-12-18T04:40:05;15.10;;;12.87;;
5684;SDS011;2865;53.114;9.130;2022-12-18T04:42:31;12.73;;;11.43;;
5684;SDS011;2865;53.114;9.130;2022-12-18T04:44:56;16.27;;;12.30;;
5684;SDS011;2865;53.114;9.130;2022-12-18T04:47:22;13.13;;;11.83;;
5684;SDS011;2865;53.114;9.130;2022-12-18T04:49:47;16.60;;;11.73;;
5684;SDS011;2865;53.114;9.130;2022-12-18T04:52:12;13.43;;;10.77;;
5684;SDS011;2865;53.114;9.130;2022-12-18T04:54:38;12.83;;;10.80;;
5684;SDS011;2865;53.114;9.130;2022-12-18T04:57:04;13.07;;;11.73;;
5684;SDS011;2865;53.114;9.130;2022-12-18T04:59:29;13.57;;;11.33;;
5684;SDS011;2865;53.114;9.130;2022-12-18T05:01:55;16.20;;;12.03;;
5684;SDS011;2865;53.114;9.130;2022-12-18T05:04:20;15.00;;;12.17;;
5684;SDS011;2865;53.114;9.130;2022-12-18T05:06:46;14.27;;;11.40;;
5684;SDS011;2865;53.114;9.130;2022-12-18T05:09:11;12.50;;;10.33;;
5684;SDS011;2865;53.114;9.130;2022-12-18T05:11:37;16.97;;;11.33;;
5684;SDS011;2865;53.114;9.130;2022-12-18T05:14:02;12.73;;;11.50;;
5684;SDS011;2865;53.114;9.130;2022-12-18T05:16:27;12.10;;;9.83;;
5684;SDS011;2865;53.114;9.130;2022-12-18T05:18:53;12.80;;;11.40;;
5684;SDS011;2865;53.114;9.130;2022-12-18T05:21:19;13.10;;;11.70;;
5684;SDS011;2865;53.114;9.130;2022-12-18T05:23:44;15.03;;;10.33;;
5684;SDS011;2865;53.114;9.130;2022-12-18T05:26:09;13.70;;;12.30;;
5684;SDS011;2865;53.114;9.130;2022-12-18T05:28:35;15.60;;;11.73;;
5684;SDS011;2865;53.114;9.130;2022-12-18T05:31:01;14.93;;;11.33;;
5684;SDS011;2865;53.114;9.130;2022-12-18T05:33:26;14.73;;;12.10;;
5684;SDS011;2865;53.114;9.130;2022-12-18T05:35:53;12.60;;;11.30;;
5684;SDS011;2865;53.114;9.130;2022-12-18T05:38:19;12.95;;;11.68;;
5684;SDS011;2865;53.114;9.130;2022-12-18T05:40:44;13.07;;;11.13;;
5684;SDS011;2865;53.114;9.130;2022-12-18T05:43:09;14.80;;;12.20;;
5684;SDS011;2865;53.114;9.130;2022-12-18T05:45:36;12.90;;;9.87;;
5684;SDS011;2865;53.114;9.130;2022-12-18T05:48:00;12.80;;;10.90;;
5684;SDS011;2865;53.114;9.130;2022-12-18T05:50:25;12.73;;;11.20;;
5684;SDS011;2865;53.114;9.130;2022-12-18T05:52:51;15.33;;;12.30;;
5684;SDS011;2865;53.114;9.130;2022-12-18T05:55:16;14.20;;;11.20;;
5684;SDS011;2865;53.114;9.130;2022-12-18T05:57:41;11.30;;;10.17;;
5684;SDS011;2865;53.114;9.130;2022-12-18T06:00:07;15.40;;;12.67;;
5684;SDS011;2865;53.114;9.130;2022-12-18T06:02:34;14.93;;;13.32;;
5684;SDS011;2865;53.114;9.130;2022-12-18T06:04:59;12.37;;;10.13;;
5684;SDS011;2865;53.114;9.130;2022-12-18T06:07:24;14.87;;;11.77;;
5684;SDS011;2865;53.114;9.130;2022-12-18T06:09:50;19.93;;;10.80;;
5684;SDS011;2865;53.114;9.130;2022-12-18T06:12:15;14.23;;;11.40;;
5684;SDS011;2865;53.114;9.130;2022-12-18T06:14:40;15.63;;;11.77;;
5684;SDS011;2865;53.114;9.130;2022-12-18T06:17:06;16.93;;;12.33;;
5684;SDS011;2865;53.114;9.130;2022-12-18T06:19:31;12.90;;;10.90;;
5684;SDS011;2865;53.114;9.130;2022-12-18T06:21:57;16.13;;;11.50;;
5684;SDS011;2865;53.114;9.130;2022-12-18T06:24:22;12.40;;;11.13;;
5684;SDS011;2865;53.114;9.130;2022-12-18T06:26:48;15.00;;;11.37;;
5684;SDS011;2865;53.114;9.130;2022-12-18T06:29:13;16.23;;;10.90;;
5684;SDS011;2865;53.114;9.130;2022-12-18T06:31:38;11.97;;;10.77;;
5684;SDS011;2865;53.114;9.130;2022-12-18T06:34:04;12.40;;;10.20;;
5684;SDS011;2865;53.114;9.130;2022-12-18T06:36:30;11.63;;;10.50;;
5684;SDS011;2865;53.114;9.130;2022-12-18T06:38:55;15.53;;;11.73;;
5684;SDS011;2865;53.114;9.130;2022-12-18T06:41:21;11.60;;;9.87;;
5684;SDS011;2865;53.114;9.130;2022-12-18T06:43:46;12.30;;;11.03;;
5684;SDS011;2865;53.114;9.130;2022-12-18T06:46:12;12.07;;;10.70;;
5684;SDS011;2865;53.114;9.130;2022-12-18T06:48:37;15.23;;;10.43;;
5684;SDS011;2865;53.114;9.130;2022-12-18T06:51:03;11.50;;;10.50;;
5684;SDS011;2865;53.114;9.130;2022-12-18T06:53:28;13.70;;;12.13;;
5684;SDS011;2865;53.114;9.130;2022-12-18T06:56:00;11.40;;;10.20;;
5684;SDS011;2865;53.114;9.130;2022-12-18T06:58:25;12.45;;;11.02;;
5684;SDS011;2865;53.114;9.130;2022-12-18T07:00:52;12.30;;;10.30;;
5684;SDS011;2865;53.114;9.130;2022-12-18T07:03:17;13.63;;;11.87;;
5684;SDS011;2865;53.114;9.130;2022-12-18T07:05:43;13.20;;;9.30;;
5684;SDS011;2865;53.114;9.130;2022-12-18T07:08:08;12.57;;;10.70;;
5684;SDS011;2865;53.114;9.130;2022-12-18T07:10:39;12.90;;;11.60;;
5684;SDS011;2865;53.114;9.130;2022-12-18T07:12:59;11.60;;;10.37;;
5684;SDS011;2865;53.114;9.130;2022-12-18T07:15:24;13.57;;;10.33;;
5684;SDS011;2865;53.114;9.130;2022-12-18T07:17:50;10.93;;;9.70;;
5684;SDS011;2865;53.114;9.130;2022-12-18T07:20:15;12.80;;;10.23;;
5684;SDS011;2865;53.114;9.130;2022-12-18T07:22:42;14.75;;;11.40;;
5684;SDS011;2865;53.114;9.130;2022-12-18T07:25:07;13.53;;;10.90;;
5684;SDS011;2865;53.114;9.130;2022-12-18T07:27:32;13.70;;;11.07;;
5684;SDS011;2865;53.114;9.130;2022-12-18T07:29:58;13.07;;;11.60;;
5684;SDS011;2865;53.114;9.130;2022-12-18T07:32:23;17.00;;;11.70;;
5684;SDS011;2865;53.114;9.130;2022-12-18T07:34:49;15.97;;;11.20;;
5684;SDS011;2865;53.114;9.130;2022-12-18T07:37:15;14.80;;;12.00;;
5684;SDS011;2865;53.114;9.130;2022-12-18T07:39:40;13.20;;;11.30;;
5684;SDS011;2865;53.114;9.130;2022-12-18T07:42:06;13.17;;;10.30;;
5684;SDS011;2865;53.114;9.130;2022-12-18T07:44:37;11.38;;;10.23;;
5684;SDS011;2865;53.114;9.130;2022-12-18T07:47:03;11.57;;;10.00;;
5684;SDS011;2865;53.114;9.130;2022-12-18T07:49:29;12.20;;;9.80;;
5684;SDS011;2865;53.114;9.130;2022-12-18T07:51:55;12.33;;;11.03;;
5684;SDS011;2865;53.114;9.130;2022-12-18T07:54:19;13.93;;;9.73;;
5684;SDS011;2865;53.114;9.130;2022-12-18T07:56:45;12.83;;;11.30;;
5684;SDS011;2865;53.114;9.130;2022-12-18T07:59:10;12.07;;;10.87;;
5684;SDS011;2865;53.114;9.130;2022-12-18T08:01:35;14.33;;;10.87;;
5684;SDS011;2865;53.114;9.130;2022-12-18T08:04:01;16.57;;;11.93;;
5684;SDS011;2865;53.114;9.130;2022-12-18T08:06:26;24.30;;;11.43;;
5684;SDS011;2865;53.114;9.130;2022-12-18T08:08:52;16.53;;;13.30;;
5684;SDS011;2865;53.114;9.130;2022-12-18T08:11:17;12.47;;;11.17;;
5684;SDS011;2865;53.114;9.130;2022-12-18T08:13:42;24.67;;;12.00;;
5684;SDS011;2865;53.114;9.130;2022-12-18T08:16:08;11.23;;;9.77;;
5684;SDS011;2865;53.114;9.130;2022-12-18T08:18:34;13.33;;;11.47;;
5684;SDS011;2865;53.114;9.130;2022-12-18T08:21:07;12.97;;;11.60;;
5684;SDS011;2865;53.114;9.130;2022-12-18T08:23:24;20.57;;;11.00;;
5684;SDS011;2865;53.114;9.130;2022-12-18T08:25:49;12.53;;;11.23;;
5684;SDS011;2865;53.114;9.130;2022-12-18T08:28:15;11.50;;;10.27;;
5684;SDS011;2865;53.114;9.130;2022-12-18T08:30:41;11.45;;;10.25;;
5684;SDS011;2865;53.114;9.130;2022-12-18T08:33:06;11.80;;;9.90;;
5684;SDS011;2865;53.114;9.130;2022-12-18T08:35:34;15.53;;;12.03;;
5684;SDS011;2865;53.114;9.130;2022-12-18T08:37:57;16.60;;;13.03;;
5684;SDS011;2865;53.114;9.130;2022-12-18T08:40:22;15.43;;;11.53;;
5684;SDS011;2865;53.114;9.130;2022-12-18T08:42:48;14.23;;;12.30;;
5684;SDS011;2865;53.114;9.130;2022-12-18T08:45:19;17.92;;;13.85;;
5684;SDS011;2865;53.114;9.130;2022-12-18T08:47:45;16.10;;;12.87;;
5684;SDS011;2865;53.114;9.130;2022-12-18T08:50:10;16.90;;;12.50;;
5684;SDS011;2865;53.114;9.130;2022-12-18T08:52:36;19.80;;;13.30;;
5684;SDS011;2865;53.114;9.130;2022-12-18T08:55:01;14.90;;;12.90;;
5684;SDS011;2865;53.114;9.130;2022-12-18T08:57:27;17.03;;;13.53;;
5684;SDS011;2865;53.114;9.130;2022-12-18T08:59:52;17.07;;;14.03;;
5684;SDS011;2865;53.114;9.130;2022-12-18T09:02:17;15.60;;;12.77;;
5684;SDS011;2865;53.114;9.130;2022-12-18T09:04:43;15.87;;;13.87;;
5684;SDS011;2865;53.114;9.130;2022-12-18T09:07:08;22.70;;;12.93;;
5684;SDS011;2865;53.114;9.130;2022-12-18T09:09:34;17.03;;;13.30;;
5684;SDS011;2865;53.114;9.130;2022-12-18T09:12:00;16.97;;;14.03;;
5684;SDS011;2865;53.114;9.130;2022-12-18T09:14:25;15.13;;;13.53;;
5684;SDS011;2865;53.114;9.130;2022-12-18T09:16:50;17.60;;;14.33;;
5684;SDS011;2865;53.114;9.130;2022-12-18T09:19:16;19.03;;;13.17;;
5684;SDS011;2865;53.114;9.130;2022-12-18T09:21:41;16.80;;;14.00;;
5684;SDS011;2865;53.114;9.130;2022-12-18T09:24:08;13.93;;;12.43;;
5684;SDS011;2865;53.114;9.130;2022-12-18T09:26:32;13.17;;;11.87;;
5684;SDS011;2865;53.114;9.130;2022-12-18T09:28:58;13.40;;;12.00;;
5684;SDS011;2865;53.114;9.130;2022-12-18T09:31:24;17.65;;;14.50;;
5684;SDS011;2865;53.114;9.130;2022-12-18T09:33:49;17.30;;;13.27;;
5684;SDS011;2865;53.114;9.130;2022-12-18T09:36:15;19.87;;;15.07;;
5684;SDS011;2865;53.114;9.130;2022-12-18T09:38:40;13.30;;;11.90;;
5684;SDS011;2865;53.114;9.130;2022-12-18T09:41:13;14.87;;;13.27;;
5684;SDS011;2865;53.114;9.130;2022-12-18T09:43:39;18.83;;;12.40;;
5684;SDS011;2865;53.114;9.130;2022-12-18T09:46:03;16.75;;;13.30;;
5684;SDS011;2865;53.114;9.130;2022-12-18T09:48:30;15.60;;;12.50;;
5684;SDS011;2865;53.114;9.130;2022-12-18T09:50:55;14.40;;;12.65;;
5684;SDS011;2865;53.114;9.130;2022-12-18T09:53:21;14.03;;;12.53;;
5684;SDS011;2865;53.114;9.130;2022-12-18T09:55:45;12.00;;;10.80;;
5684;SDS011;2865;53.114;9.130;2022-12-18T10:00:54;19.70;;;13.18;;
5684;SDS011;2865;53.114;9.130;2022-12-18T10:03:20;18.33;;;14.13;;
5684;SDS011;2865;53.114;9.130;2022-12-18T10:08:25;20.15;;;13.52;;
5684;SDS011;2865;53.114;9.130;2022-12-18T10:10:49;20.53;;;13.33;;
5684;SDS011;2865;53.114;9.130;2022-12-18T10:13:21;14.77;;;11.70;;
5684;SDS011;2865;53.114;9.130;2022-12-18T10:15:48;21.35;;;12.13;;
5684;SDS011;2865;53.114;9.130;2022-12-18T10:18:15;17.30;;;13.17;;
5684;SDS011;2865;53.114;9.130;2022-12-18T10:20:41;17.48;;;13.30;;
5684;SDS011;2865;53.114;9.130;2022-12-18T10:25:46;17.95;;;12.95;;
5684;SDS011;2865;53.114;9.130;2022-12-18T10:28:13;19.95;;;13.35;;
5684;SDS011;2865;53.114;9.130;2022-12-18T10:30:39;19.70;;;12.60;;
5684;SDS011;2865;53.114;9.130;2022-12-18T10:33:04;14.30;;;12.57;;
5684;SDS011;2865;53.114;9.130;2022-12-18T10:35:29;15.57;;;11.93;;
5684;SDS011;2865;53.114;9.130;2022-12-18T10:38:05;11.87;;;10.23;;
5684;SDS011;2865;53.114;9.130;2022-12-18T10:40:30;13.93;;;11.07;;
5684;SDS011;2865;53.114;9.130;2022-12-18T10:43:09;12.87;;;10.80;;
5684;SDS011;2865;53.114;9.130;2022-12-18T10:45:30;17.98;;;11.38;;
5684;SDS011;2865;53.114;9.130;2022-12-18T10:47:56;13.87;;;11.63;;
5684;SDS011;2865;53.114;9.130;2022-12-18T10:53:03;12.32;;;10.95;;
5684;SDS011;2865;53.114;9.130;2022-12-18T10:55:31;16.33;;;10.87;;
5684;SDS011;2865;53.114;9.130;2022-12-18T10:58:12;16.90;;;10.63;;
5684;SDS011;2865;53.114;9.130;2022-12-18T11:00:30;13.57;;;10.65;;
5684;SDS011;2865;53.114;9.130;2022-12-18T11:02:56;11.40;;;10.20;;
5684;SDS011;2865;53.114;9.130;2022-12-18T11:05:31;12.77;;;11.20;;
5684;SDS011;2865;53.114;9.130;2022-12-18T11:07:56;12.93;;;10.00;;
5684;SDS011;2865;53.114;9.130;2022-12-18T11:10:23;13.00;;;10.77;;
5684;SDS011;2865;53.114;9.130;2022-12-18T11:12:47;14.40;;;11.70;;
5684;SDS011;2865;53.114;9.130;2022-12-18T11:15:15;14.40;;;10.50;;
5684;SDS011;2865;53.114;9.130;2022-12-18T11:17:39;11.43;;;10.13;;
5684;SDS011;2865;53.114;9.130;2022-12-18T11:20:07;15.00;;;10.57;;
5684;SDS011;2865;53.114;9.130;2022-12-18T11:22:34;14.02;;;10.88;;
5684;SDS011;2865;53.114;9.130;2022-12-18T11:25:00;18.10;;;12.10;;
5684;SDS011;2865;53.114;9.130;2022-12-18T11:27:32;13.52;;;10.77;;
5684;SDS011;2865;53.114;9.130;2022-12-18T11:32:34;11.32;;;9.82;;
5684;SDS011;2865;53.114;9.130;2022-12-18T11:35:03;11.77;;;10.60;;
5684;SDS011;2865;53.114;9.130;2022-12-18T11:37:28;13.98;;;10.15;;
5684;SDS011;2865;53.114;9.130;2022-12-18T11:39:56;14.20;;;9.50;;
5684;SDS011;2865;53.114;9.130;2022-12-18T11:42:24;14.25;;;10.73;;
5684;SDS011;2865;53.114;9.130;2022-12-18T11:44:52;14.23;;;9.90;;
5684;SDS011;2865;53.114;9.130;2022-12-18T11:47:21;11.98;;;9.18;;
5684;SDS011;2865;53.114;9.130;2022-12-18T11:49:53;11.32;;;9.75;;
5684;SDS011;2865;53.114;9.130;2022-12-18T11:52:21;15.97;;;10.67;;
5684;SDS011;2865;53.114;9.130;2022-12-18T11:54:50;13.52;;;10.50;;
5684;SDS011;2865;53.114;9.130;2022-12-18T11:57:19;10.20;;;8.97;;
5684;SDS011;2865;53.114;9.130;2022-12-18T12:00:01;11.05;;;9.40;;
5684;SDS011;2865;53.114;9.130;2022-12-18T12:05:02;15.40;;;9.50;;
5684;SDS011;2865;53.114;9.130;2022-12-18T12:07:32;11.30;;;10.15;;
5684;SDS011;2865;53.114;9.130;2022-12-18T12:10:18;10.52;;;9.50;;
5684;SDS011;2865;53.114;9.130;2022-12-18T12:12:56;11.38;;;9.25;;
5684;SDS011;2865;53.114;9.130;2022-12-18T12:15:50;10.50;;;9.40;;
5684;SDS011;2865;53.114;9.130;2022-12-18T12:18:54;10.85;;;9.65;;
5684;SDS011;2865;53.114;9.130;2022-12-18T12:21:17;11.30;;;10.10;;
5684;SDS011;2865;53.114;9.130;2022-12-18T12:24:00;11.50;;;10.40;;
5684;SDS011;2865;53.114;9.130;2022-12-18T12:34:58;14.43;;;10.07;;
5684;SDS011;2865;53.114;9.130;2022-12-18T12:37:28;10.95;;;9.68;;
5684;SDS011;2865;53.114;9.130;2022-12-18T12:39:51;14.60;;;9.52;;
5684;SDS011;2865;53.114;9.130;2022-12-18T12:42:20;10.33;;;8.80;;
5684;SDS011;2865;53.114;9.130;2022-12-18T12:45:05;11.07;;;9.10;;
5684;SDS011;2865;53.114;9.130;2022-12-18T12:47:32;10.65;;;8.95;;
5684;SDS011;2865;53.114;9.130;2022-12-18T12:49:56;9.57;;;8.60;;
5684;SDS011;2865;53.114;9.130;2022-12-18T12:52:27;12.10;;;8.73;;
5684;SDS011;2865;53.114;9.130;2022-12-18T12:54:53;8.95;;;8.00;;
5684;SDS011;2865;53.114;9.130;2022-12-18T12:57:20;16.00;;;9.77;;
5684;SDS011;2865;53.114;9.130;2022-12-18T13:00:09;11.40;;;10.20;;
5684;SDS011;2865;53.114;9.130;2022-12-18T13:05:26;11.02;;;8.93;;
5684;SDS011;2865;53.114;9.130;2022-12-18T13:07:54;14.85;;;9.23;;
5684;SDS011;2865;53.114;9.130;2022-12-18T13:10:27;11.83;;;9.77;;
5684;SDS011;2865;53.114;9.130;2022-12-18T13:13:09;13.18;;;9.30;;
5684;SDS011;2865;53.114;9.130;2022-12-18T13:15:38;9.63;;;8.63;;
5684;SDS011;2865;53.114;9.130;2022-12-18T13:18:16;9.30;;;8.40;;
5684;SDS011;2865;53.114;9.130;2022-12-18T13:20:43;13.75;;;9.05;;
5684;SDS011;2865;53.114;9.130;2022-12-18T13:28:50;13.02;;;9.18;;
5684;SDS011;2865;53.114;9.130;2022-12-18T13:33:53;12.45;;;9.38;;
5684;SDS011;2865;53.114;9.130;2022-12-18T13:36:26;12.50;;;9.50;;
5684;SDS011;2865;53.114;9.130;2022-12-18T13:39:24;11.50;;;9.43;;
5684;SDS011;2865;53.114;9.130;2022-12-18T13:41:34;9.85;;;8.15;;
5684;SDS011;2865;53.114;9.130;2022-12-18T13:49:43;9.35;;;8.35;;
5684;SDS011;2865;53.114;9.130;2022-12-18T13:52:20;17.90;;;7.50;;
5684;SDS011;2865;53.114;9.130;2022-12-18T13:54:50;12.20;;;9.15;;
5684;SDS011;2865;53.114;9.130;2022-12-18T13:59:50;9.98;;;8.35;;
5684;SDS011;2865;53.114;9.130;2022-12-18T14:02:16;9.20;;;7.67;;
5684;SDS011;2865;53.114;9.130;2022-12-18T14:04:40;9.70;;;7.80;;
5684;SDS011;2865;53.114;9.130;2022-12-18T14:07:10;10.17;;;7.60;;
5684;SDS011;2865;53.114;9.130;2022-12-18T14:09:39;8.27;;;7.20;;
5684;SDS011;2865;53.114;9.130;2022-12-18T14:12:02;9.38;;;7.95;;
5684;SDS011;2865;53.114;9.130;2022-12-18T14:14:34;7.97;;;7.28;;
5684;SDS011;2865;53.114;9.130;2022-12-18T14:16:59;10.30;;;8.00;;
5684;SDS011;2865;53.114;9.130;2022-12-18T14:19:24;8.40;;;7.60;;
5684;SDS011;2865;53.114;9.130;2022-12-18T14:21:50;7.90;;;7.10;;
5684;SDS011;2865;53.114;9.130;2022-12-18T14:24:18;7.30;;;6.53;;
5684;SDS011;2865;53.114;9.130;2022-12-18T14:26:43;7.82;;;6.97;;
5684;SDS011;2865;53.114;9.130;2022-12-18T14:31:42;8.23;;;6.50;;
5684;SDS011;2865;53.114;9.130;2022-12-18T14:34:08;8.23;;;6.70;;
5684;SDS011;2865;53.114;9.130;2022-12-18T14:36:32;6.93;;;6.33;;
5684;SDS011;2865;53.114;9.130;2022-12-18T14:38:58;6.80;;;6.10;;
5684;SDS011;2865;53.114;9.130;2022-12-18T14:41:23;7.13;;;6.43;;
5684;SDS011;2865;53.114;9.130;2022-12-18T14:43:50;5.70;;;5.30;;
5684;SDS011;2865;53.114;9.130;2022-12-18T14:48:59;8.18;;;6.82;;
5684;SDS011;2865;53.114;9.130;2022-12-18T14:51:26;7.00;;;6.33;;
5684;SDS011;2865;53.114;9.130;2022-12-18T14:53:55;6.82;;;6.22;;
5684;SDS011;2865;53.114;9.130;2022-12-18T14:56:21;6.65;;;6.15;;
5684;SDS011;2865;53.114;9.130;2022-12-18T14:58:48;7.55;;;6.75;;
5684;SDS011;2865;53.114;9.130;2022-12-18T15:01:25;8.60;;;6.90;;
5684;SDS011;2865;53.114;9.130;2022-12-18T15:03:55;7.18;;;6.47;;
5684;SDS011;2865;53.114;9.130;2022-12-18T15:06:30;10.30;;;7.13;;
5684;SDS011;2865;53.114;9.130;2022-12-18T15:08:58;11.75;;;7.10;;
5684;SDS011;2865;53.114;9.130;2022-12-18T15:11:26;8.13;;;7.37;;
5684;SDS011;2865;53.114;9.130;2022-12-18T15:13:52;7.75;;;6.70;;
5684;SDS011;2865;53.114;9.130;2022-12-18T15:16:18;12.37;;;7.37;;
5684;SDS011;2865;53.114;9.130;2022-12-18T15:18:43;6.60;;;6.10;;
5684;SDS011;2865;53.114;9.130;2022-12-18T15:21:09;7.90;;;6.73;;
5684;SDS011;2865;53.114;9.130;2022-12-18T15:23:36;6.77;;;6.27;;
5684;SDS011;2865;53.114;9.130;2022-12-18T15:26:03;10.88;;;7.10;;
5684;SDS011;2865;53.114;9.130;2022-12-18T15:28:29;10.50;;;8.10;;
5684;SDS011;2865;53.114;9.130;2022-12-18T15:36:36;10.32;;;7.55;;
5684;SDS011;2865;53.114;9.130;2022-12-18T15:39:02;8.57;;;7.00;;
5684;SDS011;2865;53.114;9.130;2022-12-18T15:41:27;11.00;;;8.97;;
5684;SDS011;2865;53.114;9.130;2022-12-18T15:43:52;8.90;;;8.00;;
5684;SDS011;2865;53.114;9.130;2022-12-18T15:46:19;10.37;;;7.60;;
5684;SDS011;2865;53.114;9.130;2022-12-18T15:48:46;7.87;;;7.17;;
5684;SDS011;2865;53.114;9.130;2022-12-18T15:51:11;8.02;;;7.20;;